sensor_id;sensor_type;location;lat;lon;timestamp;pressure;altitude;pressure_sealevel;temperature;humidity
48778;BME280;34578;0.000;0.000;2024-03-17T00:02:23;97304.59;;;17.80;55.27
48778;BME280;34578;0.000;0.000;2024-03-17T00:07:24;97300.38;;;17.79;55.16
48778;BME280;34578;0.000;0.000;2024-03-17T00:12:24;97290.22;;;17.76;55.48
48778;BME280;34578;0.000;0.000;2024-03-17T00:17:25;97289.38;;;17.77;55.27
48778;BME280;34578;0.000;0.000;2024-03-17T00:22:25;97282.66;;;17.77;55.34
48778;BME280;34578;0.000;0.000;2024-03-17T00:27:25;97285.19;;;17.77;55.34
48778;BME280;34578;0.000;0.000;2024-03-17T00:32:26;97279.25;;;17.77;55.24
48778;BME280;34578;0.000;0.000;2024-03-17T00:37:26;97271.66;;;17.77;55.24
48778;BME280;34578;0.000;0.000;2024-03-17T00:42:27;97275.88;;;17.78;55.27
48778;BME280;34578;0.000;0.000;2024-03-17T00:47:27;97269.97;;;17.79;55.07
48778;BME280;34578;0.000;0.000;2024-03-17T00:52:28;97264.06;;;17.77;55.32
48778;BME280;34578;0.000;0.000;2024-03-17T00:57:28;97253.06;;;17.76;55.32
48778;BME280;34578;0.000;0.000;2024-03-17T01:02:31;97247.19;;;17.77;55.28
48778;BME280;34578;0.000;0.000;2024-03-17T01:07:32;97246.31;;;17.77;55.32
48778;BME280;34578;0.000;0.000;2024-03-17T01:12:32;97230.28;;;17.75;55.23
48778;BME280;34578;0.000;0.000;2024-03-17T01:17:33;97231.97;;;17.76;54.93
48778;BME280;34578;0.000;0.000;2024-03-17T01:22:34;97220.16;;;17.75;55.13
48778;BME280;34578;0.000;0.000;2024-03-17T01:27:34;97221.84;;;17.76;55.10
48778;BME280;34578;0.000;0.000;2024-03-17T01:32:34;97213.41;;;17.77;55.28
48778;BME280;34578;0.000;0.000;2024-03-17T01:37:35;97219.28;;;17.74;55.39
48778;BME280;34578;0.000;0.000;2024-03-17T01:42:39;97214.25;;;17.76;55.11
48778;BME280;34578;0.000;0.000;2024-03-17T01:47:40;97210.00;;;17.75;55.63
48778;BME280;34578;0.000;0.000;2024-03-17T01:52:40;97199.03;;;17.74;55.04
48778;BME280;34578;0.000;0.000;2024-03-17T01:57:40;97194.81;;;17.75;55.06
48778;BME280;34578;0.000;0.000;2024-03-17T02:02:41;97186.34;;;17.74;55.03
48778;BME280;34578;0.000;0.000;2024-03-17T02:07:41;97184.69;;;17.75;55.15
48778;BME280;34578;0.000;0.000;2024-03-17T02:12:42;97176.22;;;17.73;55.32
48778;BME280;34578;0.000;0.000;2024-03-17T02:17:42;97171.16;;;17.73;54.48
48778;BME280;34578;0.000;0.000;2024-03-17T02:22:42;97174.56;;;17.75;55.35
48778;BME280;34578;0.000;0.000;2024-03-17T02:27:43;97170.34;;;17.74;55.22
48778;BME280;34578;0.000;0.000;2024-03-17T02:32:43;97165.28;;;17.74;55.20
48778;BME280;34578;0.000;0.000;2024-03-17T02:37:43;97162.75;;;17.74;55.21
48778;BME280;34578;0.000;0.000;2024-03-17T02:42:44;97167.81;;;17.74;55.19
48778;BME280;34578;0.000;0.000;2024-03-17T02:47:45;97153.44;;;17.73;55.27
48778;BME280;34578;0.000;0.000;2024-03-17T02:52:45;97149.19;;;17.72;55.16
48778;BME280;34578;0.000;0.000;2024-03-17T02:57:46;97144.97;;;17.72;55.14
48778;BME280;34578;0.000;0.000;2024-03-17T03:02:46;97136.53;;;17.72;55.25
48778;BME280;34578;0.000;0.000;2024-03-17T03:07:46;97147.53;;;17.74;55.21
48778;BME280;34578;0.000;0.000;2024-03-17T03:12:47;97145.81;;;17.71;55.10
48778;BME280;34578;0.000;0.000;2024-03-17T03:17:47;97144.97;;;17.72;55.17
48778;BME280;34578;0.000;0.000;2024-03-17T03:22:48;97158.50;;;17.73;55.32
48778;BME280;34578;0.000;0.000;2024-03-17T03:27:48;97156.81;;;17.73;55.46
48778;BME280;34578;0.000;0.000;2024-03-17T03:32:49;97156.78;;;17.72;55.40
48778;BME280;34578;0.000;0.000;2024-03-17T03:37:49;97155.97;;;17.73;55.30
48778;BME280;34578;0.000;0.000;2024-03-17T03:42:50;97150.06;;;17.72;55.05
48778;BME280;34578;0.000;0.000;2024-03-17T03:47:51;97155.09;;;17.71;55.15
48778;BME280;34578;0.000;0.000;2024-03-17T03:52:51;97145.78;;;17.70;55.11
48778;BME280;34578;0.000;0.000;2024-03-17T03:57:52;97146.66;;;17.72;55.16
48778;BME280;34578;0.000;0.000;2024-03-17T04:02:55;97149.19;;;17.72;55.08
48778;BME280;34578;0.000;0.000;2024-03-17T04:07:55;97144.13;;;17.72;55.25
48778;BME280;34578;0.000;0.000;2024-03-17T04:12:56;97149.16;;;17.69;55.27
48778;BME280;34578;0.000;0.000;2024-03-17T04:17:57;97142.41;;;17.68;55.46
48778;BME280;34578;0.000;0.000;2024-03-17T04:22:57;97135.66;;;17.70;55.24
48778;BME280;34578;0.000;0.000;2024-03-17T04:27:58;97139.91;;;17.69;55.23
48778;BME280;34578;0.000;0.000;2024-03-17T04:32:58;97142.44;;;17.71;55.18
48778;BME280;34578;0.000;0.000;2024-03-17T04:37:59;97144.97;;;17.71;55.19
48778;BME280;34578;0.000;0.000;2024-03-17T04:43:00;97144.94;;;17.68;55.35
48778;BME280;34578;0.000;0.000;2024-03-17T04:48:00;97140.72;;;17.70;55.26
48778;BME280;34578;0.000;0.000;2024-03-17T04:53:01;97146.63;;;17.69;55.01
48778;BME280;34578;0.000;0.000;2024-03-17T04:58:04;97146.66;;;17.70;55.22
48778;BME280;34578;0.000;0.000;2024-03-17T05:03:04;97153.38;;;17.70;55.07
48778;BME280;34578;0.000;0.000;2024-03-17T05:08:04;97139.91;;;17.69;55.31
48778;BME280;34578;0.000;0.000;2024-03-17T05:13:05;97137.34;;;17.68;55.28
48778;BME280;34578;0.000;0.000;2024-03-17T05:18:05;97139.03;;;17.66;55.29
48778;BME280;34578;0.000;0.000;2024-03-17T05:23:05;97146.63;;;17.69;55.12
48778;BME280;34578;0.000;0.000;2024-03-17T05:28:06;97134.81;;;17.68;55.09
48778;BME280;34578;0.000;0.000;2024-03-17T05:33:06;97144.94;;;17.68;55.13
48778;BME280;34578;0.000;0.000;2024-03-17T05:38:06;97140.72;;;17.67;55.31
48778;BME280;34578;0.000;0.000;2024-03-17T05:43:10;97156.75;;;17.69;55.05
48778;BME280;34578;0.000;0.000;2024-03-17T05:48:10;97150.84;;;17.67;55.03
48778;BME280;34578;0.000;0.000;2024-03-17T05:53:11;97154.22;;;17.66;55.30
48778;BME280;34578;0.000;0.000;2024-03-17T05:58:11;97154.22;;;17.66;55.39
48778;BME280;34578;0.000;0.000;2024-03-17T06:03:12;97154.22;;;17.66;55.31
48778;BME280;34578;0.000;0.000;2024-03-17T06:08:13;97151.66;;;17.64;54.99
48778;BME280;34578;0.000;0.000;2024-03-17T06:13:15;97144.91;;;17.63;55.09
48778;BME280;34578;0.000;0.000;2024-03-17T06:18:17;97145.72;;;17.64;55.46
48778;BME280;34578;0.000;0.000;2024-03-17T06:23:18;97147.44;;;17.65;55.08
48778;BME280;34578;0.000;0.000;2024-03-17T06:28:18;97134.78;;;17.65;54.91
48778;BME280;34578;0.000;0.000;2024-03-17T06:33:18;97133.09;;;17.65;55.08
48778;BME280;34578;0.000;0.000;2024-03-17T06:38:19;97138.94;;;17.60;55.45
48778;BME280;34578;0.000;0.000;2024-03-17T06:43:20;97134.78;;;17.63;55.21
48778;BME280;34578;0.000;0.000;2024-03-17T06:48:20;97137.31;;;17.65;54.85
48778;BME280;34578;0.000;0.000;2024-03-17T06:53:22;97141.50;;;17.63;55.04
48778;BME280;34578;0.000;0.000;2024-03-17T06:58:23;97135.59;;;17.64;55.16
48778;BME280;34578;0.000;0.000;2024-03-17T07:03:27;97136.44;;;17.61;55.33
48778;BME280;34578;0.000;0.000;2024-03-17T07:08:29;97139.84;;;17.65;55.12
48778;BME280;34578;0.000;0.000;2024-03-17T07:13:31;97141.53;;;17.64;55.14
48778;BME280;34578;0.000;0.000;2024-03-17T07:18:32;97136.44;;;17.61;55.17
48778;BME280;34578;0.000;0.000;2024-03-17T07:23:33;97148.25;;;17.64;55.03
48778;BME280;34578;0.000;0.000;2024-03-17T07:28:33;97152.47;;;17.62;55.19
48778;BME280;34578;0.000;0.000;2024-03-17T07:33:34;97145.72;;;17.62;55.25
48778;BME280;34578;0.000;0.000;2024-03-17T07:38:34;97144.03;;;17.63;55.18
48778;BME280;34578;0.000;0.000;2024-03-17T07:43:36;97146.56;;;17.63;55.06
48778;BME280;34578;0.000;0.000;2024-03-17T07:48:41;97149.09;;;17.63;55.18
48778;BME280;34578;0.000;0.000;2024-03-17T07:53:43;97144.03;;;17.63;55.07
48778;BME280;34578;0.000;0.000;2024-03-17T07:58:45;97138.97;;;17.63;55.04
48778;BME280;34578;0.000;0.000;2024-03-17T08:03:46;97144.03;;;17.63;54.78
48778;BME280;34578;0.000;0.000;2024-03-17T08:08:49;97147.41;;;17.62;54.80
48778;BME280;34578;0.000;0.000;2024-03-17T08:13:50;97144.03;;;17.63;55.12
48778;BME280;34578;0.000;0.000;2024-03-17T08:18:50;97134.75;;;17.62;55.05
48778;BME280;34578;0.000;0.000;2024-03-17T08:23:50;97134.78;;;17.63;54.92
48778;BME280;34578;0.000;0.000;2024-03-17T08:28:51;97126.31;;;17.63;54.83
48778;BME280;34578;0.000;0.000;2024-03-17T08:33:52;97131.38;;;17.63;54.93
48778;BME280;34578;0.000;0.000;2024-03-17T08:38:52;97130.53;;;17.64;54.93
48778;BME280;34578;0.000;0.000;2024-03-17T08:43:53;97126.31;;;17.61;54.90
48778;BME280;34578;0.000;0.000;2024-03-17T08:48:53;97125.47;;;17.64;54.98
48778;BME280;34578;0.000;0.000;2024-03-17T08:53:54;97119.56;;;17.62;54.94
48778;BME280;34578;0.000;0.000;2024-03-17T08:58:54;97122.09;;;17.62;55.05
48778;BME280;34578;0.000;0.000;2024-03-17T09:03:55;97121.25;;;17.63;54.73
48778;BME280;34578;0.000;0.000;2024-03-17T09:08:56;97123.78;;;17.63;54.77
48778;BME280;34578;0.000;0.000;2024-03-17T09:13:57;97124.63;;;17.62;54.95
48778;BME280;34578;0.000;0.000;2024-03-17T09:18:58;97112.78;;;17.61;54.98
48778;BME280;34578;0.000;0.000;2024-03-17T09:23:59;97115.31;;;17.61;54.85
48778;BME280;34578;0.000;0.000;2024-03-17T09:29:00;97114.50;;;17.62;54.71
48778;BME280;34578;0.000;0.000;2024-03-17T09:34:02;97117.03;;;17.62;54.80
48778;BME280;34578;0.000;0.000;2024-03-17T09:39:03;97110.25;;;17.61;54.79
48778;BME280;34578;0.000;0.000;2024-03-17T09:44:10;97113.66;;;17.61;54.64
48778;BME280;34578;0.000;0.000;2024-03-17T09:49:15;97106.03;;;17.60;54.87
48778;BME280;34578;0.000;0.000;2024-03-17T09:54:18;97110.31;;;17.65;54.63
48778;BME280;34578;0.000;0.000;2024-03-17T09:59:21;97111.22;;;17.70;54.84
48778;BME280;34578;0.000;0.000;2024-03-17T10:04:31;97114.59;;;17.72;54.65
48778;BME280;34578;0.000;0.000;2024-03-17T10:09:32;97117.13;;;17.72;54.66
48778;BME280;34578;0.000;0.000;2024-03-17T10:14:33;97123.91;;;17.75;54.43
48778;BME280;34578;0.000;0.000;2024-03-17T10:19:34;97124.78;;;17.77;54.41
48778;BME280;34578;0.000;0.000;2024-03-17T10:24:39;97127.31;;;17.77;54.79
48778;BME280;34578;0.000;0.000;2024-03-17T10:29:42;97137.44;;;17.77;54.71
48778;BME280;34578;0.000;0.000;2024-03-17T10:34:44;97125.63;;;17.77;54.96
48778;BME280;34578;0.000;0.000;2024-03-17T10:39:46;97130.66;;;17.76;54.82
48778;BME280;34578;0.000;0.000;2024-03-17T10:44:48;97128.97;;;17.76;54.56
48778;BME280;34578;0.000;0.000;2024-03-17T10:49:50;97138.28;;;17.77;54.78
48778;BME280;34578;0.000;0.000;2024-03-17T10:54:53;97138.31;;;17.80;54.67
48778;BME280;34578;0.000;0.000;2024-03-17T10:59:53;97137.44;;;17.77;54.89
48778;BME280;34578;0.000;0.000;2024-03-17T11:05:05;97132.38;;;17.77;54.79
48778;BME280;34578;0.000;0.000;2024-03-17T11:10:06;97133.22;;;17.77;54.85
48778;BME280;34578;0.000;0.000;2024-03-17T11:20:25;97119.69;;;17.77;54.77
48778;BME280;34578;0.000;0.000;2024-03-17T11:30:42;97122.25;;;17.80;54.87
48778;BME280;34578;0.000;0.000;2024-03-17T11:35:43;97112.97;;;17.79;54.78
48778;BME280;34578;0.000;0.000;2024-03-17T11:40:45;97113.00;;;17.83;54.73
48778;BME280;34578;0.000;0.000;2024-03-17T11:45:45;97112.16;;;17.83;54.49
48778;BME280;34578;0.000;0.000;2024-03-17T11:50:46;97101.19;;;17.84;54.60
48778;BME280;34578;0.000;0.000;2024-03-17T11:55:49;97089.38;;;17.84;54.56
48778;BME280;34578;0.000;0.000;2024-03-17T12:00:53;97086.84;;;17.83;54.67
48778;BME280;34578;0.000;0.000;2024-03-17T12:05:53;97083.41;;;17.81;54.85
48778;BME280;34578;0.000;0.000;2024-03-17T12:10:54;97085.16;;;17.82;55.02
48778;BME280;34578;0.000;0.000;2024-03-17T12:16:13;97075.88;;;17.84;55.20
48778;BME280;34578;0.000;0.000;2024-03-17T12:21:14;97079.25;;;17.83;55.23
48778;BME280;34578;0.000;0.000;2024-03-17T12:26:16;97076.72;;;17.86;55.02
48778;BME280;34578;0.000;0.000;2024-03-17T12:31:16;97073.41;;;17.90;55.26
48778;BME280;34578;0.000;0.000;2024-03-17T12:36:17;97068.28;;;17.87;55.39
48778;BME280;34578;0.000;0.000;2024-03-17T12:41:17;97069.97;;;17.88;55.20
48778;BME280;34578;0.000;0.000;2024-03-17T12:46:18;97066.63;;;17.90;54.90
48778;BME280;34578;0.000;0.000;2024-03-17T12:51:18;97059.84;;;17.88;55.26
48778;BME280;34578;0.000;0.000;2024-03-17T12:56:25;97048.91;;;17.90;55.22
48778;BME280;34578;0.000;0.000;2024-03-17T13:01:44;97054.78;;;17.86;55.42
48778;BME280;34578;0.000;0.000;2024-03-17T13:06:44;97039.56;;;17.85;55.28
48778;BME280;34578;0.000;0.000;2024-03-17T13:11:44;97044.63;;;17.85;55.37
48778;BME280;34578;0.000;0.000;2024-03-17T13:16:46;97032.81;;;17.84;55.74
48778;BME280;34578;0.000;0.000;2024-03-17T13:21:47;97027.75;;;17.87;55.15
48778;BME280;34578;0.000;0.000;2024-03-17T13:26:47;97027.75;;;17.84;55.68
48778;BME280;34578;0.000;0.000;2024-03-17T13:31:49;97014.25;;;17.85;55.43
48778;BME280;34578;0.000;0.000;2024-03-17T13:36:52;97004.13;;;17.88;55.66
48778;BME280;34578;0.000;0.000;2024-03-17T13:41:55;96997.38;;;17.87;55.57
48778;BME280;34578;0.000;0.000;2024-03-17T13:46:58;96987.25;;;17.85;55.68
48778;BME280;34578;0.000;0.000;2024-03-17T13:51:59;96983.84;;;17.85;54.72
48778;BME280;34578;0.000;0.000;2024-03-17T13:56:59;96985.56;;;17.89;55.13
48778;BME280;34578;0.000;0.000;2024-03-17T14:02:02;96977.16;;;17.93;55.83
48778;BME280;34578;0.000;0.000;2024-03-17T14:07:02;96986.44;;;17.91;56.50
48778;BME280;34578;0.000;0.000;2024-03-17T14:12:03;96976.31;;;17.91;56.54
48778;BME280;34578;0.000;0.000;2024-03-17T14:17:03;96973.75;;;17.89;56.31
48778;BME280;34578;0.000;0.000;2024-03-17T14:22:04;96963.59;;;17.88;57.22
48778;BME280;34578;0.000;0.000;2024-03-17T14:27:04;96956.00;;;17.88;57.28
48778;BME280;34578;0.000;0.000;2024-03-17T14:32:06;96957.69;;;17.89;56.16
48778;BME280;34578;0.000;0.000;2024-03-17T14:37:06;96948.41;;;17.86;56.13
48778;BME280;34578;0.000;0.000;2024-03-17T14:42:07;96951.78;;;17.87;55.80
48778;BME280;34578;0.000;0.000;2024-03-17T14:47:07;96945.00;;;17.86;56.36
48778;BME280;34578;0.000;0.000;2024-03-17T14:52:08;96944.19;;;17.85;56.29
48778;BME280;34578;0.000;0.000;2024-03-17T14:57:09;96950.06;;;17.83;56.41
48778;BME280;34578;0.000;0.000;2024-03-17T15:02:10;96943.28;;;17.79;55.82
48778;BME280;34578;0.000;0.000;2024-03-17T15:07:10;96950.06;;;17.83;55.48
48778;BME280;34578;0.000;0.000;2024-03-17T15:12:12;96950.06;;;17.83;56.69
48778;BME280;34578;0.000;0.000;2024-03-17T15:17:13;96953.44;;;17.82;57.20
48778;BME280;34578;0.000;0.000;2024-03-17T15:22:15;96951.72;;;17.81;56.70
48778;BME280;34578;0.000;0.000;2024-03-17T15:27:15;96954.25;;;17.78;56.23
48778;BME280;34578;0.000;0.000;2024-03-17T15:32:16;96970.28;;;17.80;58.31
48778;BME280;34578;0.000;0.000;2024-03-17T15:37:17;96968.59;;;17.79;58.06
48778;BME280;34578;0.000;0.000;2024-03-17T15:42:17;96959.28;;;17.76;55.84
48778;BME280;34578;0.000;0.000;2024-03-17T15:47:18;96955.09;;;17.80;55.73
48778;BME280;34578;0.000;0.000;2024-03-17T15:52:19;96951.75;;;17.82;55.85
48778;BME280;34578;0.000;0.000;2024-03-17T15:57:19;96948.34;;;17.77;56.57
48778;BME280;34578;0.000;0.000;2024-03-17T16:02:19;96934.00;;;17.79;56.93
48778;BME280;34578;0.000;0.000;2024-03-17T16:07:21;96934.88;;;17.83;55.35
48778;BME280;34578;0.000;0.000;2024-03-17T16:12:24;96934.03;;;17.82;57.10
48778;BME280;34578;0.000;0.000;2024-03-17T16:17:24;96932.34;;;17.83;57.17
48778;BME280;34578;0.000;0.000;2024-03-17T16:22:25;96933.16;;;17.80;57.05
48778;BME280;34578;0.000;0.000;2024-03-17T16:27:27;96931.47;;;17.78;57.10
48778;BME280;34578;0.000;0.000;2024-03-17T16:32:28;96929.78;;;17.80;57.56
48778;BME280;34578;0.000;0.000;2024-03-17T16:37:28;96924.72;;;17.77;57.42
48778;BME280;34578;0.000;0.000;2024-03-17T16:42:29;96929.72;;;17.71;55.84
48778;BME280;34578;0.000;0.000;2024-03-17T16:47:30;96933.03;;;17.64;57.59
48778;BME280;34578;0.000;0.000;2024-03-17T16:52:32;96934.78;;;17.71;58.02
48778;BME280;34578;0.000;0.000;2024-03-17T16:57:33;96923.00;;;17.73;57.99
48778;BME280;34578;0.000;0.000;2024-03-17T17:02:36;96926.38;;;17.75;58.10
48778;BME280;34578;0.000;0.000;2024-03-17T17:07:37;96922.94;;;17.68;57.85
48778;BME280;34578;0.000;0.000;2024-03-17T17:12:42;96931.44;;;17.73;57.72
48778;BME280;34578;0.000;0.000;2024-03-17T17:17:44;96919.63;;;17.74;58.29
48778;BME280;34578;0.000;0.000;2024-03-17T17:22:45;96917.09;;;17.72;58.00
48778;BME280;34578;0.000;0.000;2024-03-17T17:27:45;96917.09;;;17.72;57.96
48778;BME280;34578;0.000;0.000;2024-03-17T17:32:46;96919.63;;;17.74;57.90
48778;BME280;34578;0.000;0.000;2024-03-17T17:37:47;96912.88;;;17.76;57.95
48778;BME280;34578;0.000;0.000;2024-03-17T17:42:48;96907.81;;;17.79;57.52
48778;BME280;34578;0.000;0.000;2024-03-17T17:47:48;96901.94;;;17.81;57.71
48778;BME280;34578;0.000;0.000;2024-03-17T17:52:49;96898.59;;;17.87;57.00
48778;BME280;34578;0.000;0.000;2024-03-17T17:57:49;96897.75;;;17.86;57.31
48778;BME280;34578;0.000;0.000;2024-03-17T18:02:53;96892.72;;;17.91;56.64
48778;BME280;34578;0.000;0.000;2024-03-17T18:07:54;96896.09;;;17.93;56.46
48778;BME280;34578;0.000;0.000;2024-03-17T18:12:54;96880.03;;;17.89;56.49
48778;BME280;34578;0.000;0.000;2024-03-17T18:17:55;96895.22;;;17.92;56.89
48778;BME280;34578;0.000;0.000;2024-03-17T18:22:55;96887.66;;;17.91;57.68
48778;BME280;34578;0.000;0.000;2024-03-17T18:27:55;96885.09;;;17.92;57.33
48778;BME280;34578;0.000;0.000;2024-03-17T18:32:56;96902.00;;;17.93;57.41
48778;BME280;34578;0.000;0.000;2024-03-17T18:37:57;96896.09;;;17.93;58.08
48778;BME280;34578;0.000;0.000;2024-03-17T18:42:58;96885.97;;;17.90;58.11
48778;BME280;34578;0.000;0.000;2024-03-17T18:47:58;96885.97;;;17.93;57.89
48778;BME280;34578;0.000;0.000;2024-03-17T18:52:59;96891.03;;;17.93;57.46
48778;BME280;34578;0.000;0.000;2024-03-17T18:58:00;96890.28;;;18.10;57.42
48778;BME280;34578;0.000;0.000;2024-03-17T19:03:01;96886.81;;;17.99;58.35
48778;BME280;34578;0.000;0.000;2024-03-17T19:08:01;96885.97;;;17.96;58.64
48778;BME280;34578;0.000;0.000;2024-03-17T19:13:01;96887.66;;;17.94;58.71
48778;BME280;34578;0.000;0.000;2024-03-17T19:18:02;96891.00;;;17.91;58.97
48778;BME280;34578;0.000;0.000;2024-03-17T19:23:03;96884.25;;;17.93;58.56
48778;BME280;34578;0.000;0.000;2024-03-17T19:28:04;96892.72;;;17.91;58.78
48778;BME280;34578;0.000;0.000;2024-03-17T19:33:04;96890.19;;;17.91;58.79
48778;BME280;34578;0.000;0.000;2024-03-17T19:38:05;96891.00;;;17.87;58.73
48778;BME280;34578;0.000;0.000;2024-03-17T19:43:05;96880.88;;;17.88;58.28
48778;BME280;34578;0.000;0.000;2024-03-17T19:48:10;96874.09;;;17.89;58.05
48778;BME280;34578;0.000;0.000;2024-03-17T19:53:11;96875.81;;;17.90;58.30
48778;BME280;34578;0.000;0.000;2024-03-17T19:58:12;96862.28;;;17.88;58.72
48778;BME280;34578;0.000;0.000;2024-03-17T20:03:12;96864.81;;;17.88;58.43
48778;BME280;34578;0.000;0.000;2024-03-17T20:08:15;96858.06;;;17.87;58.18
48778;BME280;34578;0.000;0.000;2024-03-17T20:13:16;96852.16;;;17.86;58.27
48778;BME280;34578;0.000;0.000;2024-03-17T20:18:16;96854.69;;;17.86;58.47
48778;BME280;34578;0.000;0.000;2024-03-17T20:23:17;96836.13;;;17.86;58.13
48778;BME280;34578;0.000;0.000;2024-03-17T20:28:17;96836.97;;;17.88;58.19
48778;BME280;34578;0.000;0.000;2024-03-17T20:33:19;96831.91;;;17.86;57.91
48778;BME280;34578;0.000;0.000;2024-03-17T20:38:20;96836.97;;;17.88;57.85
48778;BME280;34578;0.000;0.000;2024-03-17T20:43:20;96858.91;;;17.87;57.99
48778;BME280;34578;0.000;0.000;2024-03-17T20:48:21;96848.78;;;17.86;57.86
48778;BME280;34578;0.000;0.000;2024-03-17T20:53:21;96853.84;;;17.86;57.53
48778;BME280;34578;0.000;0.000;2024-03-17T20:58:22;96848.78;;;17.86;57.61
48778;BME280;34578;0.000;0.000;2024-03-17T21:03:26;96852.16;;;17.88;57.82
48778;BME280;34578;0.000;0.000;2024-03-17T21:08:26;96834.41;;;17.88;58.02
48778;BME280;34578;0.000;0.000;2024-03-17T21:13:26;96840.34;;;17.87;57.53
48778;BME280;34578;0.000;0.000;2024-03-17T21:18:27;96835.28;;;17.87;57.49
48778;BME280;34578;0.000;0.000;2024-03-17T21:23:27;96829.38;;;17.86;57.76
48778;BME280;34578;0.000;0.000;2024-03-17T21:28:27;96837.81;;;17.87;57.43
48778;BME280;34578;0.000;0.000;2024-03-17T21:33:30;96834.44;;;17.86;57.88
48778;BME280;34578;0.000;0.000;2024-03-17T21:38:31;96832.72;;;17.87;57.85
48778;BME280;34578;0.000;0.000;2024-03-17T21:43:31;96836.97;;;17.86;57.88
48778;BME280;34578;0.000;0.000;2024-03-17T21:48:31;96820.06;;;17.87;57.75
48778;BME280;34578;0.000;0.000;2024-03-17T21:53:32;96818.38;;;17.86;57.61
48778;BME280;34578;0.000;0.000;2024-03-17T21:58:33;96812.50;;;17.85;57.77
48778;BME280;34578;0.000;0.000;2024-03-17T22:03:34;96819.25;;;17.86;57.57
48778;BME280;34578;0.000;0.000;2024-03-17T22:08:36;96801.50;;;17.86;57.45
48778;BME280;34578;0.000;0.000;2024-03-17T22:13:38;96805.72;;;17.86;57.75
48778;BME280;34578;0.000;0.000;2024-03-17T22:18:38;96809.97;;;17.85;57.88
48778;BME280;34578;0.000;0.000;2024-03-17T22:23:42;96791.38;;;17.85;57.67
48778;BME280;34578;0.000;0.000;2024-03-17T22:28:43;96776.19;;;17.85;58.32
48778;BME280;34578;0.000;0.000;2024-03-17T22:33:43;96760.13;;;17.83;57.96
48778;BME280;34578;0.000;0.000;2024-03-17T22:38:43;96761.78;;;17.81;58.30
48778;BME280;34578;0.000;0.000;2024-03-17T22:43:44;96764.31;;;17.81;58.43
48778;BME280;34578;0.000;0.000;2024-03-17T22:48:44;96758.44;;;17.80;58.49
48778;BME280;34578;0.000;0.000;2024-03-17T22:53:46;96754.19;;;17.81;58.33
48778;BME280;34578;0.000;0.000;2024-03-17T22:58:46;96747.44;;;17.80;58.13
48778;BME280;34578;0.000;0.000;2024-03-17T23:03:47;96751.66;;;17.81;58.29
48778;BME280;34578;0.000;0.000;2024-03-17T23:08:47;96752.50;;;17.80;58.41
48778;BME280;34578;0.000;0.000;2024-03-17T23:13:48;96743.25;;;17.80;58.37
48778;BME280;34578;0.000;0.000;2024-03-17T23:18:48;96739.00;;;17.78;58.52
48778;BME280;34578;0.000;0.000;2024-03-17T23:23:49;96741.53;;;17.81;58.51
48778;BME280;34578;0.000;0.000;2024-03-17T23:28:49;96734.78;;;17.80;58.24
48778;BME280;34578;0.000;0.000;2024-03-17T23:33:50;96738.16;;;17.80;58.36
48778;BME280;34578;0.000;0.000;2024-03-17T23:38:50;96735.63;;;17.79;58.13
48778;BME280;34578;0.000;0.000;2024-03-17T23:43:53;96721.28;;;17.78;57.95
48778;BME280;34578;0.000;0.000;2024-03-17T23:48:53;96728.03;;;17.79;57.85
48778;BME280;34578;0.000;0.000;2024-03-17T23:53:54;96713.69;;;17.78;58.07
48778;BME280;34578;0.000;0.000;2024-03-17T23:58:54;96713.69;;;17.78;58.09
